Time;durP1;ratioP1;P1;durP2;ratioP2;P2;SDS_P1;SDS_P2;PMS_P1;PMS_P2;Temp;Humidity;BMP_temperature;BMP_pressure;BME280_temperature;BME280_humidity;BME280_pressure;Samples;Min_cycle;Max_cycle;Signal;HPM_P1;HPM_P2
2022/10/19 00:01:55;;;;;;;13.30;6.47;;;;;;;;;;5045837;28;20177;-70
2022/10/19 00:04:21;;;;;;;14.57;6.50;;;;;;;;;;5042490;28;20711;-70
2022/10/19 00:06:46;;;;;;;10.33;6.00;;;;;;;;;;5041939;28;20207;-70
2022/10/19 00:09:17;;;;;;;9.57;5.53;;;;;;;;;;5037773;28;20186;-70
2022/10/19 00:11:45;;;;;;;10.63;5.70;;;;;;;;;;5034425;28;20229;-70
2022/10/19 00:14:16;;;;;;;8.23;6.10;;;;;;;;;;5035197;28;20184;-70
2022/10/19 00:16:44;;;;;;;21.03;6.77;;;;;;;;;;5047636;28;20197;-70
2022/10/19 00:19:22;;;;;;;11.17;5.90;;;;;;;;;;5048774;28;20177;-70
2022/10/19 00:21:48;;;;;;;10.87;5.37;;;;;;;;;;5045974;28;20185;-70
2022/10/19 00:24:13;;;;;;;12.47;5.40;;;;;;;;;;5033575;28;20231;-70
2022/10/19 00:26:39;;;;;;;6.40;4.87;;;;;;;;;;5035254;28;20584;-70
2022/10/19 00:29:05;;;;;;;10.23;5.60;;;;;;;;;;5032795;28;20185;-70
2022/10/19 00:31:30;;;;;;;10.67;5.73;;;;;;;;;;5037147;28;20261;-70
2022/10/19 00:33:56;;;;;;;10.77;5.50;;;;;;;;;;5041231;28;20272;-70
2022/10/19 00:36:27;;;;;;;10.23;5.60;;;;;;;;;;5048602;28;20266;-70
2022/10/19 00:38:54;;;;;;;11.80;5.17;;;;;;;;;;5042314;28;20200;-71
2022/10/19 00:41:22;;;;;;;8.07;5.83;;;;;;;;;;5033313;28;20185;-70
2022/10/19 00:44:10;;;;;;;10.23;5.33;;;;;;;;;;5030227;28;20757;-70
2022/10/19 00:46:38;;;;;;;9.20;5.73;;;;;;;;;;5028664;28;20190;-70
2022/10/19 00:49:07;;;;;;;10.37;5.53;;;;;;;;;;5029427;28;20193;-70
2022/10/19 00:51:34;;;;;;;8.13;5.10;;;;;;;;;;5034285;28;20201;-70
2022/10/19 00:54:02;;;;;;;10.97;6.10;;;;;;;;;;5041441;28;20189;-70
2022/10/19 00:56:27;;;;;;;14.37;5.67;;;;;;;;;;5047799;28;20219;-70
2022/10/19 00:58:53;;;;;;;10.50;5.43;;;;;;;;;;5040230;28;20182;-71
2022/10/19 01:01:21;;;;;;;11.83;6.53;;;;;;;;;;5035498;28;20196;-71
2022/10/19 01:03:47;;;;;;;11.50;6.30;;;;;;;;;;5035386;28;20182;-71
2022/10/19 01:06:15;;;;;;;14.03;5.87;;;;;;;;;;5045922;28;20266;-71
2022/10/19 01:08:40;;;;;;;11.37;6.20;;;;;;;;;;5046825;28;20181;-71
2022/10/19 01:11:20;;;;;;;10.53;6.03;;;;;;;;;;5037564;28;20597;-70
2022/10/19 01:14:13;;;;;;;14.03;6.43;;;;;;;;;;5039087;28;20189;-70
2022/10/19 01:17:20;;;;;;;13.80;6.03;;;;;;;;;;5037058;28;20182;-70
2022/10/19 01:20:23;;;;;;;13.17;6.93;;;;;;;;;;5045409;28;20287;-71
2022/10/19 01:23:03;;;;;;;16.40;6.53;;;;;;;;;;5027552;28;20231;-70
2022/10/19 01:25:58;;;;;;;12.37;6.30;;;;;;;;;;5028322;28;20256;-70
2022/10/19 01:28:23;;;;;;;16.87;6.57;;;;;;;;;;5032784;28;20209;-70
2022/10/19 01:31:06;;;;;;;13.27;6.90;;;;;;;;;;5042770;28;20202;-71
2022/10/19 01:34:01;;;;;;;12.67;6.97;;;;;;;;;;5046054;28;20284;-71
2022/10/19 01:36:42;;;;;;;10.43;6.87;;;;;;;;;;5051682;28;20285;-71
2022/10/19 01:39:27;;;;;;;16.90;6.73;;;;;;;;;;5045138;28;20529;-71
2022/10/19 01:41:57;;;;;;;15.80;6.83;;;;;;;;;;5047344;28;20185;-70
2022/10/19 01:44:41;;;;;;;12.80;6.10;;;;;;;;;;5034525;28;20666;-70
2022/10/19 01:47:15;;;;;;;12.67;6.93;;;;;;;;;;5033701;28;20196;-70
2022/10/19 01:49:51;;;;;;;10.10;5.40;;;;;;;;;;5039953;28;20177;-70
2022/10/19 01:52:19;;;;;;;11.80;6.20;;;;;;;;;;5041745;28;20190;-71
2022/10/19 01:54:49;;;;;;;12.17;5.90;;;;;;;;;;5033207;28;20189;-71
2022/10/19 01:57:20;;;;;;;12.37;6.60;;;;;;;;;;5049999;28;20531;-71
2022/10/19 01:59:48;;;;;;;10.50;6.33;;;;;;;;;;5033372;28;20228;-71
2022/10/19 02:02:14;;;;;;;9.67;6.10;;;;;;;;;;5036507;28;20204;-70
2022/10/19 02:04:41;;;;;;;12.83;5.80;;;;;;;;;;5032475;28;20665;-70
2022/10/19 02:07:07;;;;;;;10.47;6.47;;;;;;;;;;5044735;28;20189;-70
2022/10/19 02:09:32;;;;;;;10.57;6.00;;;;;;;;;;5049862;28;20183;-70
2022/10/19 02:12:02;;;;;;;10.90;5.83;;;;;;;;;;5043640;28;20213;-70
2022/10/19 02:14:33;;;;;;;13.73;6.50;;;;;;;;;;5037560;28;20216;-69
2022/10/19 02:17:03;;;;;;;11.07;6.10;;;;;;;;;;5040862;28;20220;-70
2022/10/19 02:19:29;;;;;;;11.17;6.70;;;;;;;;;;5036109;28;20240;-70
2022/10/19 02:21:55;;;;;;;15.47;6.77;;;;;;;;;;5051576;28;20181;-70
2022/10/19 02:24:21;;;;;;;12.20;6.50;;;;;;;;;;5046376;28;20197;-71
2022/10/19 02:26:46;;;;;;;10.50;6.50;;;;;;;;;;5031229;28;20185;-71
2022/10/19 02:29:13;;;;;;;13.87;6.30;;;;;;;;;;5031994;28;20280;-70
2022/10/19 02:31:39;;;;;;;9.67;6.30;;;;;;;;;;5031342;28;20291;-71
2022/10/19 02:34:05;;;;;;;10.57;5.77;;;;;;;;;;5035324;28;20243;-71
2022/10/19 02:36:30;;;;;;;10.23;5.70;;;;;;;;;;5032104;28;20197;-71
2022/10/19 02:38:56;;;;;;;11.20;6.13;;;;;;;;;;5042687;28;20669;-71
2022/10/19 02:41:39;;;;;;;14.40;5.73;;;;;;;;;;5036305;28;20182;-71
2022/10/19 02:44:13;;;;;;;9.03;6.20;;;;;;;;;;5047925;28;20549;-71
2022/10/19 02:46:47;;;;;;;10.23;5.90;;;;;;;;;;5048935;28;20185;-71
2022/10/19 02:49:13;;;;;;;9.40;5.70;;;;;;;;;;5040061;28;20284;-71
2022/10/19 02:51:54;;;;;;;13.83;5.60;;;;;;;;;;5037100;28;20212;-71
2022/10/19 02:54:20;;;;;;;9.77;5.53;;;;;;;;;;5034191;28;20189;-70
2022/10/19 02:56:45;;;;;;;7.70;5.50;;;;;;;;;;5037486;28;20179;-70
2022/10/19 02:59:11;;;;;;;9.13;5.60;;;;;;;;;;5040599;28;20228;-71
2022/10/19 03:01:36;;;;;;;9.03;5.07;;;;;;;;;;5037601;28;20178;-70
2022/10/19 03:04:01;;;;;;;9.23;5.20;;;;;;;;;;5032463;28;20206;-71
2022/10/19 03:06:27;;;;;;;14.53;5.73;;;;;;;;;;5031904;28;20256;-70
2022/10/19 03:08:52;;;;;;;8.77;5.43;;;;;;;;;;5032070;28;20268;-70
2022/10/19 03:11:17;;;;;;;9.17;5.17;;;;;;;;;;5031370;28;20248;-70
2022/10/19 03:13:42;;;;;;;11.90;6.30;;;;;;;;;;5031491;28;20190;-71
2022/10/19 03:16:12;;;;;;;9.13;5.23;;;;;;;;;;5033517;28;20203;-71
2022/10/19 03:18:37;;;;;;;13.97;5.27;;;;;;;;;;5038374;28;20204;-71
2022/10/19 03:21:08;;;;;;;11.73;6.33;;;;;;;;;;5038619;28;20257;-71
2022/10/19 03:23:34;;;;;;;13.17;6.13;;;;;;;;;;5036802;28;20235;-72
2022/10/19 03:26:00;;;;;;;11.27;6.53;;;;;;;;;;5040083;28;20435;-72
2022/10/19 03:28:25;;;;;;;8.20;5.53;;;;;;;;;;5039279;28;20178;-71
2022/10/19 03:30:51;;;;;;;12.07;5.83;;;;;;;;;;5039785;28;20205;-71
2022/10/19 03:33:16;;;;;;;13.10;5.83;;;;;;;;;;5035923;28;20651;-71
2022/10/19 03:35:41;;;;;;;14.03;5.73;;;;;;;;;;5030880;28;20185;-72
2022/10/19 03:38:06;;;;;;;11.77;5.70;;;;;;;;;;5033810;28;20195;-72
2022/10/19 03:40:32;;;;;;;11.57;5.70;;;;;;;;;;5034265;28;20678;-72
2022/10/19 03:42:57;;;;;;;10.73;5.73;;;;;;;;;;5037857;28;20184;-71
2022/10/19 03:45:22;;;;;;;12.07;6.17;;;;;;;;;;5048323;28;20220;-72
2022/10/19 03:47:49;;;;;;;10.53;6.00;;;;;;;;;;5042338;28;20216;-70
2022/10/19 03:50:15;;;;;;;10.60;5.90;;;;;;;;;;5046758;28;20223;-71
2022/10/19 03:52:41;;;;;;;9.43;5.53;;;;;;;;;;5049410;28;20226;-71
2022/10/19 03:55:07;;;;;;;11.87;6.10;;;;;;;;;;5035003;28;20236;-71
2022/10/19 03:57:33;;;;;;;8.37;5.97;;;;;;;;;;5033579;28;20198;-71
2022/10/19 03:59:58;;;;;;;11.93;6.80;;;;;;;;;;5044822;28;20637;-71
2022/10/19 04:02:23;;;;;;;11.20;6.20;;;;;;;;;;5046360;28;20212;-71
2022/10/19 04:04:49;;;;;;;15.13;6.50;;;;;;;;;;5035294;28;20188;-71
2022/10/19 04:07:14;;;;;;;7.90;6.10;;;;;;;;;;5030169;28;20217;-71
2022/10/19 04:09:39;;;;;;;8.83;6.37;;;;;;;;;;5039193;28;20185;-71
2022/10/19 04:12:05;;;;;;;10.17;6.07;;;;;;;;;;5044747;28;20776;-71
2022/10/19 04:14:30;;;;;;;9.93;6.20;;;;;;;;;;5029514;28;20182;-71
2022/10/19 04:16:55;;;;;;;15.27;7.30;;;;;;;;;;5039651;28;20192;-71
2022/10/19 04:19:21;;;;;;;9.97;6.43;;;;;;;;;;5041275;28;20217;-71
2022/10/19 04:21:48;;;;;;;11.67;6.23;;;;;;;;;;5036120;28;20269;-72
2022/10/19 04:24:15;;;;;;;8.57;5.90;;;;;;;;;;5036792;28;20181;-72
2022/10/19 04:26:46;;;;;;;9.07;6.53;;;;;;;;;;5030793;28;20689;-71
2022/10/19 04:29:12;;;;;;;10.23;6.27;;;;;;;;;;5029888;28;20236;-71
2022/10/19 04:31:38;;;;;;;8.07;5.83;;;;;;;;;;5032472;28;20205;-70
2022/10/19 04:34:04;;;;;;;10.90;6.50;;;;;;;;;;5038394;28;20193;-71
2022/10/19 04:36:30;;;;;;;9.10;5.57;;;;;;;;;;5043484;28;20177;-70
2022/10/19 04:38:55;;;;;;;9.20;5.93;;;;;;;;;;5038667;28;20184;-70
2022/10/19 04:41:21;;;;;;;8.20;5.57;;;;;;;;;;5041268;28;20268;-71
2022/10/19 04:43:47;;;;;;;10.67;5.77;;;;;;;;;;5032499;28;20185;-70
2022/10/19 04:46:17;;;;;;;7.27;4.97;;;;;;;;;;5047892;28;20177;-70
2022/10/19 04:48:44;;;;;;;10.80;5.43;;;;;;;;;;5035634;28;20264;-70
2022/10/19 04:51:10;;;;;;;11.93;5.53;;;;;;;;;;5043281;28;20700;-70
2022/10/19 04:53:37;;;;;;;8.67;4.93;;;;;;;;;;5046259;28;20668;-70
2022/10/19 04:56:08;;;;;;;7.97;5.30;;;;;;;;;;5029482;28;20190;-70
2022/10/19 04:58:33;;;;;;;8.80;4.70;;;;;;;;;;5042583;28;20184;-70
2022/10/19 05:01:05;;;;;;;8.50;5.23;;;;;;;;;;5030384;28;20182;-71
2022/10/19 05:03:30;;;;;;;8.30;5.03;;;;;;;;;;5035436;28;20225;-71
2022/10/19 05:05:58;;;;;;;8.77;5.23;;;;;;;;;;5035886;28;20228;-71
2022/10/19 05:08:23;;;;;;;5.60;4.50;;;;;;;;;;5043106;28;20304;-71
2022/10/19 05:10:49;;;;;;;5.80;4.13;;;;;;;;;;5032521;28;20296;-71
2022/10/19 05:13:14;;;;;;;5.77;4.13;;;;;;;;;;5041865;28;20193;-71
2022/10/19 05:15:39;;;;;;;4.57;3.57;;;;;;;;;;5039373;28;20240;-71
2022/10/19 05:18:05;;;;;;;18.40;4.90;;;;;;;;;;5035420;28;20612;-71
2022/10/19 05:20:30;;;;;;;10.60;5.90;;;;;;;;;;5036975;28;20597;-71
2022/10/19 05:22:55;;;;;;;26.20;7.20;;;;;;;;;;5039311;28;20204;-71
2022/10/19 05:25:20;;;;;;;25.53;8.10;;;;;;;;;;5039024;28;20261;-71
2022/10/19 05:27:50;;;;;;;29.63;8.13;;;;;;;;;;5043041;28;20260;-71
2022/10/19 05:30:15;;;;;;;39.00;8.17;;;;;;;;;;5047332;28;20238;-71
2022/10/19 05:32:41;;;;;;;29.23;8.53;;;;;;;;;;5039821;28;20264;-71
2022/10/19 05:35:06;;;;;;;16.47;8.83;;;;;;;;;;5039737;28;20248;-71
2022/10/19 05:37:32;;;;;;;17.33;8.40;;;;;;;;;;5033020;28;20660;-71
2022/10/19 05:39:57;;;;;;;18.10;9.03;;;;;;;;;;5038447;28;20209;-71
2022/10/19 05:42:22;;;;;;;15.57;8.00;;;;;;;;;;5030495;28;20170;-71
2022/10/19 05:44:48;;;;;;;13.77;7.47;;;;;;;;;;5036592;28;20385;-71
2022/10/19 05:47:13;;;;;;;14.43;7.73;;;;;;;;;;5046894;28;20264;-71
2022/10/19 05:49:38;;;;;;;16.70;8.20;;;;;;;;;;5037905;28;20189;-72
2022/10/19 05:52:04;;;;;;;19.87;9.10;;;;;;;;;;5038086;28;20213;-72
2022/10/19 05:54:29;;;;;;;18.50;11.20;;;;;;;;;;5035698;28;20189;-72
2022/10/19 05:56:54;;;;;;;18.70;10.50;;;;;;;;;;5041881;28;20277;-72
2022/10/19 05:59:20;;;;;;;20.77;10.87;;;;;;;;;;5043023;28;20217;-72
2022/10/19 06:01:46;;;;;;;20.73;11.03;;;;;;;;;;5037156;28;20202;-72
2022/10/19 06:04:13;;;;;;;21.33;11.43;;;;;;;;;;5031305;28;20621;-72
2022/10/19 06:06:40;;;;;;;17.70;10.80;;;;;;;;;;5037819;28;20197;-72
2022/10/19 06:09:06;;;;;;;25.30;12.30;;;;;;;;;;5037364;28;20193;-72
2022/10/19 06:11:34;;;;;;;19.67;12.70;;;;;;;;;;5051669;28;20208;-72
2022/10/19 06:14:01;;;;;;;16.80;11.53;;;;;;;;;;5044267;28;20182;-72
2022/10/19 06:16:28;;;;;;;16.40;10.80;;;;;;;;;;5039790;28;20255;-71
2022/10/19 06:18:54;;;;;;;15.60;10.73;;;;;;;;;;5050906;28;20562;-71
2022/10/19 06:21:22;;;;;;;16.60;11.00;;;;;;;;;;5035056;28;20208;-71
2022/10/19 06:23:51;;;;;;;15.07;10.23;;;;;;;;;;5033884;28;20277;-71
2022/10/19 06:26:17;;;;;;;13.87;9.53;;;;;;;;;;5031129;28;20260;-71
2022/10/19 06:28:43;;;;;;;18.60;10.30;;;;;;;;;;5036209;28;20273;-71
2022/10/19 06:31:09;;;;;;;18.73;9.53;;;;;;;;;;5039630;28;20692;-71
2022/10/19 06:33:35;;;;;;;13.50;9.30;;;;;;;;;;5034276;28;20545;-71
2022/10/19 06:36:06;;;;;;;14.20;9.00;;;;;;;;;;5036005;28;20213;-71
2022/10/19 06:38:31;;;;;;;13.73;9.13;;;;;;;;;;5036829;28;20170;-71
2022/10/19 06:40:59;;;;;;;13.53;8.07;;;;;;;;;;5044623;28;20188;-71
2022/10/19 06:43:26;;;;;;;14.30;8.40;;;;;;;;;;5031155;28;20269;-72
2022/10/19 06:45:51;;;;;;;11.87;8.73;;;;;;;;;;5038639;28;20177;-71
2022/10/19 06:48:16;;;;;;;16.33;9.07;;;;;;;;;;5041006;28;20193;-71
2022/10/19 06:50:42;;;;;;;12.20;8.10;;;;;;;;;;5035609;28;20247;-71
2022/10/19 06:53:07;;;;;;;16.77;9.10;;;;;;;;;;5046358;28;20182;-72
2022/10/19 06:55:32;;;;;;;12.33;8.37;;;;;;;;;;5041122;28;20184;-71
2022/10/19 06:58:00;;;;;;;12.97;8.27;;;;;;;;;;5029963;28;20222;-72
2022/10/19 07:00:27;;;;;;;11.97;8.07;;;;;;;;;;5032559;28;20269;-72
2022/10/19 07:02:53;;;;;;;12.93;8.53;;;;;;;;;;5040528;28;20190;-72
2022/10/19 07:05:18;;;;;;;14.70;8.37;;;;;;;;;;5038989;28;20617;-72
2022/10/19 07:07:44;;;;;;;13.87;8.93;;;;;;;;;;5041067;28;20212;-72
2022/10/19 07:10:09;;;;;;;12.70;8.57;;;;;;;;;;5036257;28;20679;-72
2022/10/19 07:12:35;;;;;;;12.23;8.00;;;;;;;;;;5042812;28;20342;-72
2022/10/19 07:15:00;;;;;;;10.50;7.87;;;;;;;;;;5031337;28;20665;-72
2022/10/19 07:17:25;;;;;;;13.13;7.83;;;;;;;;;;5029845;28;20224;-72
2022/10/19 07:19:51;;;;;;;14.43;7.80;;;;;;;;;;5028617;28;20190;-72
2022/10/19 07:22:16;;;;;;;11.80;7.43;;;;;;;;;;5036939;28;20653;-72
2022/10/19 07:24:42;;;;;;;11.57;7.17;;;;;;;;;;5046478;28;20181;-72
2022/10/19 07:27:07;;;;;;;11.20;7.03;;;;;;;;;;5042470;28;20247;-72
2022/10/19 07:29:33;;;;;;;18.43;7.10;;;;;;;;;;5040038;28;20186;-72
2022/10/19 07:31:58;;;;;;;10.97;7.50;;;;;;;;;;5031575;28;20229;-72
2022/10/19 07:34:23;;;;;;;9.13;6.77;;;;;;;;;;5042323;28;20186;-72
2022/10/19 07:36:49;;;;;;;13.23;7.80;;;;;;;;;;5041016;28;20256;-72
2022/10/19 07:39:17;;;;;;;12.27;6.73;;;;;;;;;;5040456;28;20177;-72
2022/10/19 07:41:43;;;;;;;9.93;6.10;;;;;;;;;;5039489;28;20208;-72
2022/10/19 07:44:09;;;;;;;7.73;6.40;;;;;;;;;;5030892;28;20316;-73
2022/10/19 07:46:37;;;;;;;11.32;6.18;;;;;;;;;;5037001;28;20181;-72
2022/10/19 07:49:06;;;;;;;11.37;6.60;;;;;;;;;;5041670;28;20189;-71
2022/10/19 07:51:31;;;;;;;13.40;6.60;;;;;;;;;;5031570;28;20206;-71
2022/10/19 07:53:57;;;;;;;9.25;5.95;;;;;;;;;;5030438;28;20648;-72
2022/10/19 07:56:25;;;;;;;11.35;6.28;;;;;;;;;;5030883;28;20210;-72
2022/10/19 07:58:52;;;;;;;10.70;6.55;;;;;;;;;;5039345;28;20541;-72
2022/10/19 08:01:20;;;;;;;10.65;6.03;;;;;;;;;;5038587;28;20185;-72
2022/10/19 08:03:46;;;;;;;12.02;6.30;;;;;;;;;;5036126;28;20189;-72
2022/10/19 08:06:13;;;;;;;11.45;5.90;;;;;;;;;;5036021;28;20190;-72
2022/10/19 08:08:39;;;;;;;12.60;6.60;;;;;;;;;;5033559;28;20212;-72
2022/10/19 08:11:13;;;;;;;9.93;5.68;;;;;;;;;;5033066;28;20681;-72
2022/10/19 08:13:39;;;;;;;12.55;5.75;;;;;;;;;;5035454;28;20174;-72
2022/10/19 08:16:05;;;;;;;9.68;5.60;;;;;;;;;;5040297;28;20554;-72
2022/10/19 08:18:31;;;;;;;10.00;5.07;;;;;;;;;;5042972;28;20192;-72
2022/10/19 08:20:56;;;;;;;11.10;5.65;;;;;;;;;;5034657;28;20331;-72
2022/10/19 08:23:22;;;;;;;14.95;6.22;;;;;;;;;;5041108;28;20713;-72
2022/10/19 08:25:48;;;;;;;14.02;5.63;;;;;;;;;;5032939;28;20664;-72
2022/10/19 08:28:14;;;;;;;12.68;5.65;;;;;;;;;;5041256;28;20268;-72
2022/10/19 08:30:39;;;;;;;10.02;4.45;;;;;;;;;;5030671;28;20279;-72
2022/10/19 08:33:07;;;;;;;14.48;4.78;;;;;;;;;;5037942;28;20317;-72
2022/10/19 08:35:33;;;;;;;11.32;4.40;;;;;;;;;;5031956;28;20661;-72
2022/10/19 08:37:59;;;;;;;6.13;4.05;;;;;;;;;;5028987;28;20214;-73
2022/10/19 08:40:27;;;;;;;12.05;4.47;;;;;;;;;;5030551;28;20400;-72
2022/10/19 08:43:11;;;;;;;10.98;4.75;;;;;;;;;;5032095;28;20194;-72
2022/10/19 08:45:38;;;;;;;13.38;4.28;;;;;;;;;;5029072;28;20185;-71
2022/10/19 08:48:15;;;;;;;9.55;4.85;;;;;;;;;;5028711;28;20182;-72
2022/10/19 08:50:43;;;;;;;9.57;4.57;;;;;;;;;;5034178;28;20228;-71
2022/10/19 08:53:16;;;;;;;11.52;4.22;;;;;;;;;;5033843;28;20192;-71
2022/10/19 08:56:15;;;;;;;9.38;4.22;;;;;;;;;;5028080;28;20188;-71
2022/10/19 08:58:55;;;;;;;16.48;4.57;;;;;;;;;;5037114;28;20181;-71
2022/10/19 09:01:32;;;;;;;9.02;4.18;;;;;;;;;;5036702;28;20181;-71
2022/10/19 09:04:01;;;;;;;9.48;4.35;;;;;;;;;;5037387;28;20269;-71
2022/10/19 09:06:35;;;;;;;8.13;3.75;;;;;;;;;;5033902;28;20669;-71
2022/10/19 09:09:00;;;;;;;11.88;4.47;;;;;;;;;;5034406;28;20204;-72
2022/10/19 09:11:34;;;;;;;13.95;3.90;;;;;;;;;;5035061;28;20201;-72
2022/10/19 09:14:09;;;;;;;10.13;3.80;;;;;;;;;;5028298;28;20673;-72
2022/10/19 09:16:35;;;;;;;13.23;4.05;;;;;;;;;;5032205;28;20271;-72
2022/10/19 09:19:01;;;;;;;10.48;3.58;;;;;;;;;;5031047;28;20174;-72
2022/10/19 09:21:50;;;;;;;13.43;3.97;;;;;;;;;;5032700;28;20166;-71
2022/10/19 09:24:24;;;;;;;11.45;3.90;;;;;;;;;;5040636;28;20276;-71
2022/10/19 09:26:57;;;;;;;18.90;4.25;;;;;;;;;;5027950;28;20645;-71
2022/10/19 09:29:30;;;;;;;13.25;3.83;;;;;;;;;;5035766;28;20235;-71
2022/10/19 09:31:59;;;;;;;17.48;3.80;;;;;;;;;;5032998;28;20225;-72
2022/10/19 09:34:30;;;;;;;16.95;3.70;;;;;;;;;;5042691;28;20190;-72
2022/10/19 09:36:57;;;;;;;13.00;3.78;;;;;;;;;;5035157;28;20181;-72
2022/10/19 09:39:28;;;;;;;13.13;3.47;;;;;;;;;;5046594;28;20185;-72
2022/10/19 09:41:56;;;;;;;11.90;3.50;;;;;;;;;;5028088;28;20228;-72
2022/10/19 09:44:23;;;;;;;14.80;4.10;;;;;;;;;;5039187;28;20681;-72
2022/10/19 09:47:16;;;;;;;11.07;2.95;;;;;;;;;;5029118;28;20258;-72
2022/10/19 09:49:44;;;;;;;9.90;3.17;;;;;;;;;;5036642;28;20221;-72
2022/10/19 09:52:28;;;;;;;14.18;3.00;;;;;;;;;;5042523;28;20283;-72
2022/10/19 09:55:03;;;;;;;11.30;3.40;;;;;;;;;;5036091;28;20196;-72
2022/10/19 09:57:29;;;;;;;14.98;3.15;;;;;;;;;;5040400;28;20272;-72
2022/10/19 09:59:55;;;;;;;13.93;3.80;;;;;;;;;;5041613;28;20685;-72
2022/10/19 10:02:28;;;;;;;12.57;2.20;;;;;;;;;;5043570;28;20213;-71
2022/10/19 10:04:56;;;;;;;16.15;2.47;;;;;;;;;;5031386;28;20703;-72
2022/10/19 10:07:25;;;;;;;11.52;2.70;;;;;;;;;;5038204;28;20181;-70
2022/10/19 10:09:51;;;;;;;12.63;2.88;;;;;;;;;;5044928;28;20201;-70
2022/10/19 10:12:17;;;;;;;12.55;2.95;;;;;;;;;;5036193;28;20244;-70
2022/10/19 10:14:43;;;;;;;11.93;2.67;;;;;;;;;;5042160;28;20183;-70
2022/10/19 10:17:16;;;;;;;12.35;2.28;;;;;;;;;;5042057;28;20189;-70
2022/10/19 10:19:56;;;;;;;7.35;1.73;;;;;;;;;;5034201;28;20174;-71
2022/10/19 10:22:27;;;;;;;17.42;2.00;;;;;;;;;;5041961;28;20628;-71
2022/10/19 10:24:55;;;;;;;10.90;1.98;;;;;;;;;;5046756;28;20188;-72
2022/10/19 10:27:37;;;;;;;9.93;2.30;;;;;;;;;;5034853;28;20600;-71
2022/10/19 10:30:08;;;;;;;13.45;2.45;;;;;;;;;;5044568;28;20700;-72
2022/10/19 10:32:44;;;;;;;8.63;1.92;;;;;;;;;;5045853;28;20286;-70
2022/10/19 10:35:37;;;;;;;9.05;1.63;;;;;;;;;;5037242;28;20232;-71
2022/10/19 10:38:08;;;;;;;11.85;1.88;;;;;;;;;;5031363;28;20202;-72
2022/10/19 10:40:35;;;;;;;6.82;2.10;;;;;;;;;;5038253;28;20664;-70
2022/10/19 10:43:14;;;;;;;10.30;1.73;;;;;;;;;;5041127;28;20196;-70
2022/10/19 10:45:42;;;;;;;13.05;2.45;;;;;;;;;;5045920;28;20181;-70
2022/10/19 10:48:11;;;;;;;11.32;2.10;;;;;;;;;;5031383;28;20187;-70
2022/10/19 10:50:37;;;;;;;10.82;1.55;;;;;;;;;;5043057;28;20294;-70
2022/10/19 10:53:26;;;;;;;13.32;2.08;;;;;;;;;;5035653;28;20643;-70
2022/10/19 10:55:56;;;;;;;12.60;1.90;;;;;;;;;;5031170;28;20217;-71
2022/10/19 10:58:47;;;;;;;17.38;2.28;;;;;;;;;;5043704;28;20178;-70
2022/10/19 11:01:19;;;;;;;11.77;1.85;;;;;;;;;;5043817;28;20641;-70
2022/10/19 11:03:53;;;;;;;10.13;1.42;;;;;;;;;;5047029;28;20178;-71
2022/10/19 11:06:21;;;;;;;9.43;1.38;;;;;;;;;;5031281;28;20548;-71
2022/10/19 11:09:05;;;;;;;7.85;1.60;;;;;;;;;;5033580;28;20178;-71
2022/10/19 11:11:41;;;;;;;10.13;1.63;;;;;;;;;;5029693;28;20216;-71
2022/10/19 11:14:33;;;;;;;7.70;1.80;;;;;;;;;;5034383;28;20183;-74
2022/10/19 11:17:05;;;;;;;10.82;1.90;;;;;;;;;;5038056;28;20649;-71
2022/10/19 11:19:35;;;;;;;12.25;2.00;;;;;;;;;;5050380;28;20188;-71
2022/10/19 11:22:06;;;;;;;9.07;2.13;;;;;;;;;;5048305;28;20552;-71
2022/10/19 11:24:55;;;;;;;11.73;1.95;;;;;;;;;;5048767;28;20190;-71
2022/10/19 11:27:42;;;;;;;11.85;1.77;;;;;;;;;;5041874;28;20567;-70
2022/10/19 11:30:21;;;;;;;9.05;1.85;;;;;;;;;;5033483;28;20182;-70
2022/10/19 11:33:11;;;;;;;9.93;1.70;;;;;;;;;;5035585;28;20689;-71
2022/10/19 11:35:49;;;;;;;9.25;1.88;;;;;;;;;;5038956;28;20185;-72
2022/10/19 11:38:33;;;;;;;12.05;2.22;;;;;;;;;;5033384;28;20348;-72
2022/10/19 11:41:13;;;;;;;9.35;1.77;;;;;;;;;;5050419;28;20443;-72
2022/10/19 11:44:04;;;;;;;7.22;1.77;;;;;;;;;;5030957;28;20190;-70
2022/10/19 11:46:51;;;;;;;12.63;2.00;;;;;;;;;;5033389;28;20289;-72
2022/10/19 11:49:26;;;;;;;9.50;2.03;;;;;;;;;;5037924;28;20185;-78
2022/10/19 11:51:57;;;;;;;8.73;2.10;;;;;;;;;;5029174;28;20208;-70
2022/10/19 11:54:52;;;;;;;8.82;2.10;;;;;;;;;;5043347;28;20190;-70
2022/10/19 11:57:31;;;;;;;9.10;1.70;;;;;;;;;;5029344;28;20312;-71
2022/10/19 12:00:05;;;;;;;8.18;1.90;;;;;;;;;;5032237;28;20193;-70
2022/10/19 12:03:08;;;;;;;10.18;1.75;;;;;;;;;;5036007;28;20185;-70
2022/10/19 12:06:01;;;;;;;8.00;1.90;;;;;;;;;;5042482;28;20260;-70
2022/10/19 12:08:37;;;;;;;10.20;2.05;;;;;;;;;;5041644;28;20197;-70
2022/10/19 12:11:28;;;;;;;7.75;1.83;;;;;;;;;;5046681;28;20266;-71
2022/10/19 12:13:59;;;;;;;9.05;2.35;;;;;;;;;;5046144;28;20189;-70
2022/10/19 12:16:37;;;;;;;8.98;2.33;;;;;;;;;;5030744;28;20505;-69
2022/10/19 12:19:05;;;;;;;6.45;1.73;;;;;;;;;;5035382;28;20182;-71
2022/10/19 12:21:35;;;;;;;10.60;1.92;;;;;;;;;;5042797;28;20170;-69
2022/10/19 12:24:04;;;;;;;9.40;1.90;;;;;;;;;;5041016;28;20185;-69
2022/10/19 12:26:33;;;;;;;7.53;1.75;;;;;;;;;;5048104;28;20235;-73
2022/10/19 12:29:02;;;;;;;6.05;1.83;;;;;;;;;;5030975;28;20213;-70
2022/10/19 12:31:29;;;;;;;5.63;1.70;;;;;;;;;;5042830;28;20726;-70
2022/10/19 12:34:06;;;;;;;9.85;2.10;;;;;;;;;;5038868;28;20205;-70
2022/10/19 12:36:43;;;;;;;5.85;1.50;;;;;;;;;;5029335;28;20810;-70
2022/10/19 12:39:21;;;;;;;8.82;2.20;;;;;;;;;;5032745;28;20181;-69
2022/10/19 12:42:15;;;;;;;7.78;1.88;;;;;;;;;;5030907;28;20442;-70
2022/10/19 12:45:00;;;;;;;10.43;2.20;;;;;;;;;;5042840;28;20189;-70
2022/10/19 12:47:25;;;;;;;9.60;1.70;;;;;;;;;;5047811;28;20224;-70
2022/10/19 12:49:54;;;;;;;4.93;1.75;;;;;;;;;;5047299;28;20723;-70
2022/10/19 12:52:40;;;;;;;11.13;2.15;;;;;;;;;;5047902;28;20209;-70
2022/10/19 12:55:23;;;;;;;7.32;1.85;;;;;;;;;;5038742;28;20323;-70
2022/10/19 12:58:00;;;;;;;11.27;2.15;;;;;;;;;;5034928;28;20185;-70
2022/10/19 13:00:30;;;;;;;7.88;2.10;;;;;;;;;;5029931;28;20486;-70
2022/10/19 13:03:05;;;;;;;5.68;1.98;;;;;;;;;;5045820;28;20212;-70
2022/10/19 13:05:32;;;;;;;9.35;2.10;;;;;;;;;;5034637;28;20324;-70
2022/10/19 13:08:01;;;;;;;9.07;2.15;;;;;;;;;;5033236;28;20189;-70
2022/10/19 13:10:28;;;;;;;6.00;2.00;;;;;;;;;;5043623;28;20189;-70
2022/10/19 13:12:54;;;;;;;8.45;2.17;;;;;;;;;;5039906;28;20178;-70
2022/10/19 13:15:35;;;;;;;8.85;2.55;;;;;;;;;;5038591;28;20188;-72
2022/10/19 13:18:01;;;;;;;7.90;2.47;;;;;;;;;;5028665;28;20257;-69
2022/10/19 13:20:27;;;;;;;9.75;2.38;;;;;;;;;;5029390;28;20182;-70
2022/10/19 13:22:59;;;;;;;7.93;2.38;;;;;;;;;;5044245;28;20501;-69
2022/10/19 13:25:28;;;;;;;9.57;2.63;;;;;;;;;;5040823;28;20660;-70
2022/10/19 13:28:20;;;;;;;8.35;2.25;;;;;;;;;;5032816;28;20197;-70
2022/10/19 13:30:45;;;;;;;10.55;2.15;;;;;;;;;;5043081;28;20208;-70
2022/10/19 13:33:32;;;;;;;11.27;3.47;;;;;;;;;;5047705;28;20229;-70
2022/10/19 13:35:57;;;;;;;5.60;2.42;;;;;;;;;;5042710;28;20208;-69
2022/10/19 13:38:27;;;;;;;8.95;2.83;;;;;;;;;;5034380;28;20190;-70
2022/10/19 13:41:00;;;;;;;8.75;2.30;;;;;;;;;;5042535;28;20552;-70
2022/10/19 13:43:37;;;;;;;7.93;2.38;;;;;;;;;;5036692;28;20239;-69
2022/10/19 13:46:32;;;;;;;6.10;2.35;;;;;;;;;;5052289;28;20196;-69
2022/10/19 13:49:04;;;;;;;7.03;2.15;;;;;;;;;;5033318;28;20185;-70
2022/10/19 13:52:01;;;;;;;7.97;2.33;;;;;;;;;;5037153;28;20680;-70
2022/10/19 13:54:49;;;;;;;8.80;2.58;;;;;;;;;;5032212;28;20216;-70
2022/10/19 13:57:46;;;;;;;8.45;2.58;;;;;;;;;;5031737;28;20178;-70
2022/10/19 14:00:18;;;;;;;9.50;2.42;;;;;;;;;;5046181;28;20492;-70
2022/10/19 14:03:02;;;;;;;8.50;2.10;;;;;;;;;;5045245;28;20512;-70
2022/10/19 14:05:58;;;;;;;10.02;2.58;;;;;;;;;;5041592;28;20185;-72
2022/10/19 14:09:03;;;;;;;9.93;2.10;;;;;;;;;;5044433;28;20673;-71
2022/10/19 14:11:40;;;;;;;10.77;2.72;;;;;;;;;;5028250;28;20217;-71
2022/10/19 14:14:14;;;;;;;9.18;2.22;;;;;;;;;;5027700;28;20181;-70
2022/10/19 14:16:50;;;;;;;6.00;2.00;;;;;;;;;;5030756;28;20244;-70
2022/10/19 14:19:29;;;;;;;10.32;2.13;;;;;;;;;;5029573;28;20578;-69
2022/10/19 14:21:57;;;;;;;8.57;1.77;;;;;;;;;;5031539;28;20170;-71
2022/10/19 14:24:32;;;;;;;7.80;1.48;;;;;;;;;;5042152;28;20190;-70
2022/10/19 14:27:03;;;;;;;13.50;2.38;;;;;;;;;;5036481;28;20186;-70
2022/10/19 14:29:32;;;;;;;10.80;1.73;;;;;;;;;;5045284;28;20196;-70
2022/10/19 14:31:58;;;;;;;11.30;2.05;;;;;;;;;;5038425;28;20232;-70
2022/10/19 14:34:23;;;;;;;7.47;2.00;;;;;;;;;;5032341;28;20190;-70
2022/10/19 14:36:49;;;;;;;4.45;1.35;;;;;;;;;;5031381;28;20213;-70
2022/10/19 14:39:30;;;;;;;9.85;1.88;;;;;;;;;;5034129;28;20196;-71
2022/10/19 14:42:02;;;;;;;6.70;1.80;;;;;;;;;;5046228;28;20232;-70
2022/10/19 14:44:36;;;;;;;11.80;2.22;;;;;;;;;;5031418;28;20186;-70
2022/10/19 14:47:19;;;;;;;14.00;2.05;;;;;;;;;;5043869;28;20189;-70
2022/10/19 14:49:45;;;;;;;9.20;1.77;;;;;;;;;;5030987;28;20186;-74
2022/10/19 14:52:16;;;;;;;9.15;1.98;;;;;;;;;;5038461;28;20217;-70
2022/10/19 14:54:45;;;;;;;9.35;1.77;;;;;;;;;;5041800;28;20468;-71
2022/10/19 14:57:17;;;;;;;15.48;3.40;;;;;;;;;;5046097;28;20192;-70